Time;durP1;ratioP1;P1;durP2;ratioP2;P2;SDS_P1;SDS_P2;PMS_P1;PMS_P2;Temp;Humidity;BMP_temperature;BMP_pressure;BME280_temperature;BME280_humidity;BME280_pressure;Samples;Min_cycle;Max_cycle;Signal;HPM_P1;HPM_P2
2023/10/25 00:02:28;;;;;;;9.90;3.40;;;;;;;15.27;69.42;100304.61;107573;1251;107907;-63
2023/10/25 00:04:57;;;;;;;12.10;3.10;;;;;;;15.25;69.53;100303.10;107662;1252;97865;-61
2023/10/25 00:07:25;;;;;;;12.40;3.20;;;;;;;15.22;70.00;100299.36;107640;1253;97814;-62
2023/10/25 00:09:53;;;;;;;7.50;3.20;;;;;;;15.19;70.35;100299.77;107662;1253;111695;-61
2023/10/25 00:12:21;;;;;;;9.20;4.10;;;;;;;15.15;71.01;100296.98;107543;1253;109310;-62
2023/10/25 00:14:50;;;;;;;13.90;4.60;;;;;;;15.12;70.83;100290.23;107626;1252;108433;-61
2023/10/25 00:17:18;;;;;;;14.80;3.40;;;;;;;15.12;71.06;100289.36;107572;1253;97813;-62
2023/10/25 00:19:46;;;;;;;10.70;3.80;;;;;;;15.12;71.20;100285.02;107551;1255;97684;-62
2023/10/25 00:22:14;;;;;;;13.50;3.40;;;;;;;15.11;71.40;100277.02;107571;1251;113115;-62
2023/10/25 00:24:42;;;;;;;13.00;3.30;;;;;;;15.12;71.66;100265.70;107615;1253;110092;-62
2023/10/25 00:27:11;;;;;;;11.50;3.50;;;;;;;15.14;71.55;100257.65;107595;1253;107848;-61
2023/10/25 00:29:39;;;;;;;12.10;3.50;;;;;;;15.16;71.71;100245.58;107590;1255;97947;-62
2023/10/25 00:32:14;;;;;;;23.50;4.50;;;;;;;15.18;71.91;100238.77;107617;1251;97847;-62
2023/10/25 00:34:43;;;;;;;14.70;3.90;;;;;;;15.21;71.70;100237.80;107530;1251;110668;-63
2023/10/25 00:37:11;;;;;;;14.70;4.20;;;;;;;15.23;71.86;100237.15;107623;1251;110060;-62
2023/10/25 00:39:40;;;;;;;8.70;3.40;;;;;;;15.22;72.02;100234.58;107515;1253;108335;-62
2023/10/25 00:42:09;;;;;;;12.50;3.50;;;;;;;15.22;71.87;100233.15;107543;1253;97865;-62
2023/10/25 00:44:37;;;;;;;13.70;3.40;;;;;;;15.23;71.99;100234.05;107511;1253;98399;-62
2023/10/25 00:47:07;;;;;;;18.20;4.10;;;;;;;15.24;71.92;100236.36;107619;1253;110075;-62
2023/10/25 00:49:36;;;;;;;10.60;4.10;;;;;;;15.25;71.79;100234.17;107600;1253;108211;-63
2023/10/25 00:52:05;;;;;;;12.70;4.00;;;;;;;15.28;71.93;100241.85;107600;1254;106432;-62
2023/10/25 00:54:36;;;;;;;17.70;3.60;;;;;;;15.30;71.82;100244.84;107492;1253;97936;-62
2023/10/25 00:57:04;;;;;;;13.80;3.60;;;;;;;15.33;71.88;100244.83;107610;1251;98351;-62
2023/10/25 00:59:33;;;;;;;16.70;3.50;;;;;;;15.34;71.89;100247.94;107592;1251;110907;-63
2023/10/25 01:02:02;;;;;;;12.80;3.80;;;;;;;15.35;71.84;100247.36;107588;1253;109046;-61
2023/10/25 01:04:31;;;;;;;15.10;3.80;;;;;;;15.37;71.80;100237.93;107541;1252;106089;-62
2023/10/25 01:07:00;;;;;;;9.70;3.40;;;;;;;15.40;72.07;100236.58;107592;1251;97822;-62
2023/10/25 01:09:30;;;;;;;11.20;3.80;;;;;;;15.43;72.11;100236.86;107578;1251;98457;-63
2023/10/25 01:11:59;;;;;;;12.40;3.60;;;;;;;15.45;72.16;100237.08;107589;1251;112136;-62
2023/10/25 01:14:29;;;;;;;11.80;3.50;;;;;;;15.45;72.71;100243.05;107578;1253;109793;-61
2023/10/25 01:16:57;;;;;;;10.70;3.80;;;;;;;15.42;73.04;100243.45;107575;1253;108149;-62
2023/10/25 01:19:27;;;;;;;14.40;3.70;;;;;;;15.42;72.92;100245.74;107544;1253;97836;-61
2023/10/25 01:21:55;;;;;;;11.00;3.60;;;;;;;15.46;72.84;100241.21;107591;1250;97693;-62
2023/10/25 01:24:23;;;;;;;10.60;3.40;;;;;;;15.46;72.55;100248.94;107499;1253;111883;-60
2023/10/25 01:26:51;;;;;;;10.90;3.60;;;;;;;15.46;72.59;100257.77;107533;1253;110192;-63
2023/10/25 01:29:20;;;;;;;11.50;3.60;;;;;;;15.49;72.78;100256.17;107505;1253;106327;-62
2023/10/25 01:31:49;;;;;;;10.00;3.80;;;;;;;15.51;72.62;100252.55;107535;1256;97833;-61
2023/10/25 01:34:18;;;;;;;11.10;4.20;;;;;;;15.53;72.51;100248.91;107520;1254;98350;-61
2023/10/25 01:36:47;;;;;;;16.80;4.90;;;;;;;15.54;72.57;100244.38;107546;1253;111168;-62
2023/10/25 01:39:15;;;;;;;11.60;4.10;;;;;;;15.55;72.63;100237.46;107528;1253;108639;-62
2023/10/25 01:41:45;;;;;;;11.90;4.30;;;;;;;15.54;72.57;100235.55;107551;1253;107573;-62
2023/10/25 01:44:14;;;;;;;23.10;4.20;;;;;;;15.54;72.63;100233.55;107518;1251;98168;-62
2023/10/25 01:46:43;;;;;;;21.00;5.20;;;;;;;15.53;72.61;100222.27;107555;1253;97819;-62
2023/10/25 01:49:11;;;;;;;12.90;3.80;;;;;;;15.54;72.70;100223.48;107615;1251;110344;-62
2023/10/25 01:51:39;;;;;;;22.10;3.30;;;;;;;15.54;72.45;100219.87;107578;1251;109285;-62
2023/10/25 01:54:08;;;;;;;8.60;4.20;;;;;;;15.56;72.49;100218.35;107511;1253;108023;-63
2023/10/25 01:56:37;;;;;;;23.90;4.60;;;;;;;15.57;72.75;100215.09;107494;1253;97829;-63
2023/10/25 01:59:06;;;;;;;15.20;4.10;;;;;;;15.57;72.55;100206.83;107558;1252;97753;-61
2023/10/25 02:01:34;;;;;;;22.00;4.10;;;;;;;15.57;72.49;100195.20;107602;1251;112221;-64
2023/10/25 02:04:03;;;;;;;17.70;4.40;;;;;;;15.56;72.35;100185.79;107547;1251;108755;-61
2023/10/25 02:06:31;;;;;;;15.00;4.40;;;;;;;15.56;72.41;100182.38;107542;1253;109016;-62
2023/10/25 02:08:59;;;;;;;16.70;4.20;;;;;;;15.57;72.60;100185.17;107554;1256;97819;-61
2023/10/25 02:11:27;;;;;;;11.60;3.60;;;;;;;15.56;72.56;100169.35;107496;1251;98477;-61
2023/10/25 02:13:59;;;;;;;17.60;4.30;;;;;;;15.53;73.26;100148.52;107580;1251;111894;-63
2023/10/25 02:16:27;;;;;;;21.80;4.70;;;;;;;15.47;73.32;100146.54;107529;1253;109834;-62
2023/10/25 02:18:55;;;;;;;13.30;4.80;;;;;;;15.44;73.69;100142.70;107517;1253;108574;-65
2023/10/25 02:21:24;;;;;;;17.80;4.20;;;;;;;15.41;73.56;100137.81;107544;1253;98106;-62
2023/10/25 02:23:55;;;;;;;16.40;4.80;;;;;;;15.40;73.92;100131.36;107596;1253;97833;-62
2023/10/25 02:26:23;;;;;;;14.20;5.00;;;;;;;15.35;73.99;100126.29;107595;1253;111495;-62
2023/10/25 02:28:51;;;;;;;16.20;4.20;;;;;;;15.31;74.08;100123.51;107627;1250;109078;-61
2023/10/25 02:31:20;;;;;;;14.10;4.40;;;;;;;15.27;74.49;100114.77;107500;1252;107888;-62
2023/10/25 02:33:48;;;;;;;13.60;3.80;;;;;;;15.23;74.58;100109.45;107558;1251;97856;-61
2023/10/25 02:36:17;;;;;;;15.40;5.50;;;;;;;15.19;74.59;100110.45;107630;1251;97838;-62
2023/10/25 02:38:48;;;;;;;19.70;5.00;;;;;;;15.17;75.43;100107.98;107637;1254;110950;-61
2023/10/25 02:41:16;;;;;;;18.70;4.90;;;;;;;15.15;74.98;100109.45;107595;1253;108236;-62
2023/10/25 02:43:44;;;;;;;18.30;4.70;;;;;;;15.15;74.80;100112.86;107582;1251;108462;-63
2023/10/25 02:46:13;;;;;;;13.60;4.40;;;;;;;15.15;74.93;100106.20;107591;1251;97910;-62
2023/10/25 02:48:41;;;;;;;19.40;4.40;;;;;;;15.14;75.72;100104.96;107536;1251;97833;-61
2023/10/25 02:51:10;;;;;;;12.80;4.50;;;;;;;15.10;75.79;100102.29;107596;1257;110963;-61
2023/10/25 02:53:39;;;;;;;16.80;4.30;;;;;;;15.08;76.33;100097.45;107547;1254;109559;-61
2023/10/25 02:56:08;;;;;;;12.40;5.30;;;;;;;15.05;76.99;100095.48;107574;1251;107701;-62
2023/10/25 02:58:36;;;;;;;9.10;4.70;;;;;;;15.00;77.13;100090.26;107585;1257;97864;-62
2023/10/25 03:01:05;;;;;;;12.20;5.00;;;;;;;14.98;77.64;100088.20;107529;1253;98368;-62
2023/10/25 03:03:34;;;;;;;19.10;5.50;;;;;;;14.95;77.64;100084.42;107521;1253;111850;-61
2023/10/25 03:06:03;;;;;;;20.80;4.90;;;;;;;14.94;78.10;100085.17;107621;1251;108791;-62
2023/10/25 03:08:32;;;;;;;20.50;4.80;;;;;;;14.92;78.40;100082.64;107445;1253;107599;-61
2023/10/25 03:11:00;;;;;;;9.80;5.30;;;;;;;14.89;78.22;100083.66;107512;1251;97893;-61
2023/10/25 03:13:28;;;;;;;16.00;5.00;;;;;;;14.90;77.97;100072.77;107586;1255;97909;-61
2023/10/25 03:15:57;;;;;;;16.10;4.90;;;;;;;14.91;78.08;100068.77;107596;1251;111665;-62
2023/10/25 03:18:26;;;;;;;21.40;5.60;;;;;;;14.94;77.80;100077.50;107505;1253;109948;-62
2023/10/25 03:20:54;;;;;;;13.20;4.60;;;;;;;14.95;77.39;100070.27;107526;1253;108072;-62
2023/10/25 03:23:23;;;;;;;11.50;4.70;;;;;;;14.96;77.61;100067.30;107612;1251;97704;-62
2023/10/25 03:25:51;;;;;;;11.60;4.60;;;;;;;14.98;77.27;100067.07;107517;1251;97774;-61
2023/10/25 03:28:19;;;;;;;13.60;4.80;;;;;;;14.99;77.30;100067.67;107599;1253;111459;-61
2023/10/25 03:30:47;;;;;;;14.50;6.70;;;;;;;14.99;77.30;100063.27;107579;1253;108536;-62
2023/10/25 03:33:16;;;;;;;16.70;6.20;;;;;;;15.01;77.15;100068.14;107601;1256;106640;-61
2023/10/25 03:35:51;;;;;;;23.10;5.60;;;;;;;15.05;77.13;100064.44;107356;1258;97847;-62
2023/10/25 03:38:20;;;;;;;14.00;5.40;;;;;;;15.04;76.91;100054.27;107639;1251;97746;-62
2023/10/25 03:40:48;;;;;;;20.40;5.50;;;;;;;15.01;76.97;100044.47;107592;1256;110825;-61
2023/10/25 03:43:17;;;;;;;15.70;5.20;;;;;;;15.00;77.19;100027.07;107467;1253;110074;-63
2023/10/25 03:45:45;;;;;;;15.10;5.10;;;;;;;14.99;77.10;100021.77;107516;1253;109011;-62
2023/10/25 03:48:14;;;;;;;14.20;4.60;;;;;;;14.99;77.24;100017.66;107537;1253;97737;-61
2023/10/25 03:50:42;;;;;;;17.90;5.00;;;;;;;14.98;77.29;100016.09;107438;1254;97903;-63
2023/10/25 03:53:10;;;;;;;20.00;5.40;;;;;;;14.97;77.48;100013.93;107482;1253;111592;-61
2023/10/25 03:55:39;;;;;;;19.20;4.40;;;;;;;14.96;77.40;100007.25;107458;1253;108649;-61
2023/10/25 03:58:08;;;;;;;17.50;4.70;;;;;;;14.94;77.26;99993.85;107465;1253;107000;-62
2023/10/25 04:00:37;;;;;;;16.60;5.00;;;;;;;14.93;77.16;99989.63;107438;1253;97923;-62
2023/10/25 04:03:05;;;;;;;12.20;4.00;;;;;;;14.92;77.00;99996.98;107466;1255;97836;-62
2023/10/25 04:05:34;;;;;;;21.30;5.30;;;;;;;14.94;77.05;99994.59;107440;1253;110898;-62
2023/10/25 04:08:02;;;;;;;15.30;5.40;;;;;;;14.95;76.84;99995.02;107494;1253;110709;-61
2023/10/25 04:10:30;;;;;;;11.80;4.90;;;;;;;14.98;77.09;99994.52;107455;1253;108177;-63
2023/10/25 04:13:00;;;;;;;16.30;7.30;;;;;;;14.98;76.76;99992.12;107423;1255;97711;-62
2023/10/25 04:15:34;;;;;;;28.20;5.90;;;;;;;15.03;76.95;99986.27;107476;1254;97847;-62
2023/10/25 04:18:04;;;;;;;17.90;5.00;;;;;;;15.07;76.61;99980.82;107544;1253;111367;-62
2023/10/25 04:20:32;;;;;;;26.50;11.60;;;;;;;15.09;76.76;99969.23;107475;1251;109031;-62
2023/10/25 04:23:01;;;;;;;19.60;5.30;;;;;;;15.12;76.71;99954.19;107519;1256;108720;-61
2023/10/25 04:25:29;;;;;;;17.90;4.70;;;;;;;15.13;76.68;99948.52;107437;1251;97999;-61
2023/10/25 04:27:57;;;;;;;18.00;5.10;;;;;;;15.08;76.37;99943.46;107481;1256;97705;-63
2023/10/25 04:30:26;;;;;;;17.30;6.40;;;;;;;15.07;76.38;99949.16;107482;1255;111787;-62
2023/10/25 04:32:54;;;;;;;17.00;5.10;;;;;;;15.07;76.41;99955.11;107452;1253;109467;-62
2023/10/25 04:35:23;;;;;;;22.80;5.10;;;;;;;15.07;76.43;99947.11;107436;1251;108684;-63
2023/10/25 04:37:51;;;;;;;24.10;5.10;;;;;;;15.09;76.28;99951.57;107466;1256;97802;-62
2023/10/25 04:40:19;;;;;;;11.80;3.90;;;;;;;15.08;76.30;99947.09;107413;1255;98409;-62
2023/10/25 04:42:53;;;;;;;19.70;4.60;;;;;;;15.08;76.43;99942.76;107450;1254;110980;-62
2023/10/25 04:45:22;;;;;;;18.90;4.80;;;;;;;15.06;76.19;99936.55;107564;1253;109365;-61
2023/10/25 04:47:51;;;;;;;17.00;4.20;;;;;;;15.04;76.12;99934.01;107433;1251;107904;-62
2023/10/25 04:50:21;;;;;;;20.40;4.90;;;;;;;15.05;75.90;99931.51;107364;1253;97836;-65
2023/10/25 04:52:49;;;;;;;24.60;5.60;;;;;;;15.06;76.00;99933.85;107492;1251;98530;-63
2023/10/25 04:55:18;;;;;;;24.10;5.40;;;;;;;15.07;75.94;99932.56;107459;1253;113980;-61
2023/10/25 04:57:46;;;;;;;16.50;5.00;;;;;;;15.09;75.88;99926.02;107418;1254;109224;-62
2023/10/25 05:00:15;;;;;;;14.20;5.50;;;;;;;15.11;75.74;99932.27;107489;1253;108278;-61
2023/10/25 05:02:44;;;;;;;22.20;5.60;;;;;;;15.12;75.64;99931.64;107473;1251;100049;-61
2023/10/25 05:05:12;;;;;;;23.70;4.90;;;;;;;15.13;75.53;99924.58;107465;1254;97942;-62
2023/10/25 05:07:41;;;;;;;26.50;5.10;;;;;;;15.15;75.37;99924.02;107440;1251;112199;-62
2023/10/25 05:10:12;;;;;;;22.70;5.40;;;;;;;15.17;75.39;99928.93;107490;1251;109740;-62
2023/10/25 05:12:42;;;;;;;31.70;8.00;;;;;;;15.20;75.09;99937.09;107493;1256;107031;-61
2023/10/25 05:15:16;;;;;;;21.20;6.60;;;;;;;15.22;74.92;99942.66;107516;1255;97954;-63
2023/10/25 05:17:47;;;;;;;26.10;5.60;;;;;;;15.22;74.61;99949.00;107465;1255;97841;-63
2023/10/25 05:20:16;;;;;;;20.80;5.60;;;;;;;15.25;74.72;99960.71;107423;1251;110768;-63
2023/10/25 05:22:50;;;;;;;18.90;5.10;;;;;;;15.28;74.72;99950.59;107595;1256;108430;-62
2023/10/25 05:25:19;;;;;;;27.90;5.40;;;;;;;15.30;74.48;99940.64;107549;1256;108138;-61
2023/10/25 05:27:48;;;;;;;18.10;5.50;;;;;;;15.30;74.53;99934.68;107641;1255;97752;-61
2023/10/25 05:30:17;;;;;;;19.00;4.80;;;;;;;15.30;74.58;99936.06;107627;1254;97825;-63
2023/10/25 05:32:49;;;;;;;18.60;4.90;;;;;;;15.31;74.57;99922.83;107575;1251;110357;-61
2023/10/25 05:35:18;;;;;;;23.00;5.70;;;;;;;15.31;74.76;99917.88;107633;1251;108454;-62
2023/10/25 05:37:46;;;;;;;24.30;5.60;;;;;;;15.30;74.79;99918.39;107572;1251;108446;-61
2023/10/25 05:40:15;;;;;;;14.50;4.80;;;;;;;15.32;75.17;99924.55;107590;1256;99336;-62
2023/10/25 05:42:48;;;;;;;22.00;5.80;;;;;;;15.30;75.20;99928.31;107631;1256;97714;-62
2023/10/25 05:45:17;;;;;;;20.50;5.40;;;;;;;15.32;75.53;99932.71;107614;1251;110459;-61
2023/10/25 05:47:45;;;;;;;22.60;5.90;;;;;;;15.33;75.52;99920.85;107390;1251;108682;-62
2023/10/25 05:50:15;;;;;;;18.10;6.00;;;;;;;15.33;75.67;99918.35;107574;1256;108568;-61
2023/10/25 05:52:46;;;;;;;22.90;6.00;;;;;;;15.34;75.80;99911.19;107619;1251;97932;-61
2023/10/25 05:55:16;;;;;;;15.10;5.70;;;;;;;15.36;76.00;99915.88;107581;1251;97852;-61
2023/10/25 05:57:45;;;;;;;24.90;5.90;;;;;;;15.39;76.08;99918.75;107618;1256;112667;-61
2023/10/25 06:00:15;;;;;;;23.30;6.00;;;;;;;15.42;76.05;99911.16;107579;1256;109379;-62
2023/10/25 06:02:44;;;;;;;17.20;6.10;;;;;;;15.44;76.19;99898.60;107598;1251;108591;-62
2023/10/25 06:05:13;;;;;;;15.60;4.70;;;;;;;15.48;76.41;99898.27;107594;1251;98492;-61
2023/10/25 06:07:43;;;;;;;15.80;5.90;;;;;;;15.51;76.37;99896.01;107588;1256;98373;-62
2023/10/25 06:10:12;;;;;;;18.70;5.20;;;;;;;15.51;76.32;99895.25;107566;1255;112342;-61
2023/10/25 06:12:41;;;;;;;13.10;6.10;;;;;;;15.51;76.27;99899.27;107609;1254;109989;-62
2023/10/25 06:15:10;;;;;;;17.30;5.60;;;;;;;15.53;76.42;99900.75;107488;1251;106985;-62
2023/10/25 06:17:39;;;;;;;22.00;5.50;;;;;;;15.55;76.42;99898.77;107601;1257;97837;-61
2023/10/25 06:20:10;;;;;;;16.00;5.30;;;;;;;15.54;76.31;99899.12;107540;1251;97812;-64
2023/10/25 06:22:38;;;;;;;12.60;4.90;;;;;;;15.50;76.09;99905.80;107553;1255;110571;-62
2023/10/25 06:25:09;;;;;;;12.10;5.30;;;;;;;15.53;76.29;99903.70;107594;1251;109871;-63
2023/10/25 06:27:40;;;;;;;19.20;5.90;;;;;;;15.56;76.37;99895.31;107600;1256;107009;-62
2023/10/25 06:30:09;;;;;;;14.00;5.80;;;;;;;15.58;76.30;99899.88;107572;1251;98023;-62
2023/10/25 06:32:40;;;;;;;21.30;6.00;;;;;;;15.59;76.31;99901.73;107597;1251;98397;-62
2023/10/25 06:35:08;;;;;;;17.60;6.20;;;;;;;15.60;76.37;99912.62;107438;1253;112258;-61
2023/10/25 06:37:37;;;;;;;18.60;6.40;;;;;;;15.58;76.29;99919.15;107584;1254;109896;-62
2023/10/25 06:40:07;;;;;;;19.30;6.00;;;;;;;15.60;76.36;99913.70;107578;1253;109012;-62
2023/10/25 06:42:36;;;;;;;15.70;4.90;;;;;;;15.62;76.54;99904.91;107432;1257;98009;-64
2023/10/25 06:45:05;;;;;;;18.40;5.60;;;;;;;15.62;76.46;99919.70;107597;1257;99522;-61
2023/10/25 06:47:34;;;;;;;16.00;5.40;;;;;;;15.62;76.51;99912.86;107685;1256;110450;-62
2023/10/25 06:50:03;;;;;;;19.60;5.30;;;;;;;15.64;76.43;99901.03;107592;1251;110864;-61
2023/10/25 06:52:32;;;;;;;18.90;5.90;;;;;;;15.67;76.32;99899.58;107603;1256;108618;-62
2023/10/25 06:55:01;;;;;;;14.00;5.70;;;;;;;15.72;76.33;99904.02;107612;1254;97861;-61
2023/10/25 06:57:30;;;;;;;14.20;5.40;;;;;;;15.75;76.54;99904.95;107569;1254;97196;-61
2023/10/25 06:59:59;;;;;;;14.00;5.90;;;;;;;15.78;77.02;99896.98;107594;1251;111640;-62
2023/10/25 07:02:47;;;;;;;17.80;5.80;;;;;;;15.78;77.30;99891.23;107624;1254;109951;-62
2023/10/25 07:05:15;;;;;;;15.80;5.80;;;;;;;15.74;77.46;99884.23;107547;1252;108248;-62
2023/10/25 07:07:45;;;;;;;16.70;6.10;;;;;;;15.73;77.97;99888.55;107477;1254;97854;-62
2023/10/25 07:10:14;;;;;;;10.80;5.20;;;;;;;15.73;77.83;99886.46;107533;1251;97752;-62
2023/10/25 07:12:42;;;;;;;27.20;6.20;;;;;;;15.74;78.16;99886.80;107588;1253;111398;-61
2023/10/25 07:15:11;;;;;;;18.10;6.20;;;;;;;15.75;77.96;99882.14;107602;1251;109569;-62
2023/10/25 07:17:41;;;;;;;15.60;4.80;;;;;;;15.79;78.13;99880.35;107608;1256;107594;-62
2023/10/25 07:20:10;;;;;;;13.40;5.80;;;;;;;15.84;78.03;99867.98;107515;1254;97838;-61
2023/10/25 07:22:38;;;;;;;27.10;6.70;;;;;;;15.90;78.15;99861.46;107622;1256;97753;-63
2023/10/25 07:25:08;;;;;;;21.90;6.80;;;;;;;15.97;78.24;99861.95;107618;1251;112607;-61
2023/10/25 07:27:37;;;;;;;29.20;6.10;;;;;;;16.04;78.09;99868.85;107622;1251;107701;-63
2023/10/25 07:30:06;;;;;;;27.20;5.90;;;;;;;16.07;78.05;99859.63;107644;1251;107887;-61
2023/10/25 07:32:35;;;;;;;18.80;6.30;;;;;;;16.07;77.88;99844.89;107568;1254;97819;-62
2023/10/25 07:35:05;;;;;;;18.40;6.80;;;;;;;16.10;77.96;99836.36;107623;1251;98441;-63
2023/10/25 07:37:33;;;;;;;25.10;7.20;;;;;;;16.12;77.99;99837.80;107618;1251;111666;-63
2023/10/25 07:40:05;;;;;;;25.40;7.70;;;;;;;16.17;77.95;99834.49;107531;1254;109390;-64
2023/10/25 07:42:33;;;;;;;21.30;7.00;;;;;;;16.24;78.02;99838.64;107665;1256;108301;-62
2023/10/25 07:45:03;;;;;;;20.40;6.40;;;;;;;16.32;77.88;99832.19;107599;1251;97715;-62
2023/10/25 07:47:32;;;;;;;33.90;7.90;;;;;;;16.41;77.64;99833.14;107543;1254;97837;-63
2023/10/25 07:50:01;;;;;;;32.50;8.60;;;;;;;16.52;77.49;99829.45;107527;1254;112132;-62
2023/10/25 07:52:29;;;;;;;24.90;7.50;;;;;;;16.65;77.53;99832.17;107470;1254;110093;-62
2023/10/25 07:54:58;;;;;;;22.90;7.80;;;;;;;16.77;77.33;99837.97;107595;1251;108095;-62
2023/10/25 07:57:27;;;;;;;19.70;7.10;;;;;;;16.86;77.17;99831.33;107597;1254;97942;-62
2023/10/25 08:00:16;;;;;;;26.20;7.70;;;;;;;16.97;77.13;99828.73;107627;1254;98103;-62
2023/10/25 08:02:44;;;;;;;20.10;6.40;;;;;;;17.06;76.96;99819.29;107583;1251;110248;-61
2023/10/25 08:05:12;;;;;;;21.30;6.60;;;;;;;17.10;76.31;99805.19;107640;1251;109744;-63
2023/10/25 08:07:42;;;;;;;28.90;6.60;;;;;;;17.17;75.87;99798.89;107585;1256;108608;-63
2023/10/25 08:10:10;;;;;;;18.60;7.80;;;;;;;17.31;75.57;99796.02;107469;1256;97892;-62
2023/10/25 08:12:38;;;;;;;14.60;5.70;;;;;;;17.46;75.25;99804.43;107458;1251;97713;-63
2023/10/25 08:15:08;;;;;;;19.00;5.60;;;;;;;17.59;74.44;99805.75;107668;1250;111466;-62
2023/10/25 08:17:36;;;;;;;17.90;5.20;;;;;;;17.70;73.95;99802.51;107576;1253;108088;-62
2023/10/25 08:20:05;;;;;;;16.80;6.00;;;;;;;17.80;74.00;99803.06;107572;1254;107895;-61
2023/10/25 08:22:35;;;;;;;16.10;6.90;;;;;;;17.88;73.31;99804.24;107630;1255;97864;-63
2023/10/25 08:25:08;;;;;;;17.90;6.30;;;;;;;17.95;72.77;99814.02;107592;1251;97918;-62
2023/10/25 08:27:37;;;;;;;21.50;6.90;;;;;;;18.04;72.63;99830.08;107560;1251;113140;-62
2023/10/25 08:30:07;;;;;;;17.40;6.60;;;;;;;18.12;72.31;99836.43;107645;1249;109150;-61
2023/10/25 08:32:35;;;;;;;18.60;7.20;;;;;;;18.18;72.08;99837.90;107561;1253;107973;-63
2023/10/25 08:35:04;;;;;;;15.50;6.10;;;;;;;18.25;71.36;99839.41;107425;1251;97900;-61
2023/10/25 08:37:32;;;;;;;16.60;6.20;;;;;;;18.26;70.74;99837.94;107659;1251;98385;-62
2023/10/25 08:40:01;;;;;;;21.70;6.40;;;;;;;18.23;70.36;99834.52;107424;1254;110825;-63
2023/10/25 08:42:29;;;;;;;16.40;6.70;;;;;;;18.23;70.50;99824.72;107654;1254;110423;-63
2023/10/25 08:44:58;;;;;;;19.10;7.60;;;;;;;18.23;70.54;99820.78;107540;1251;108155;-62
2023/10/25 08:47:28;;;;;;;21.30;6.70;;;;;;;18.20;70.63;99816.76;107631;1251;97842;-63
2023/10/25 08:49:56;;;;;;;21.70;7.20;;;;;;;18.19;70.76;99816.39;107624;1254;98374;-63
2023/10/25 08:52:25;;;;;;;11.90;5.70;;;;;;;18.23;71.10;99813.91;107561;1256;111820;-63
2023/10/25 08:54:53;;;;;;;17.90;6.70;;;;;;;18.29;70.94;99811.77;107641;1251;108640;-63
2023/10/25 08:57:22;;;;;;;13.70;5.50;;;;;;;18.32;70.65;99812.14;107581;1254;107774;-63
2023/10/25 08:59:51;;;;;;;25.50;10.60;;;;;;;18.36;70.60;99822.16;107661;1252;97837;-62
2023/10/25 09:02:20;;;;;;;20.00;7.30;;;;;;;18.42;70.85;99819.25;107581;1254;97818;-63
2023/10/25 09:05:06;;;;;;;28.60;6.70;;;;;;;18.53;70.86;99808.23;107601;1251;110958;-62
2023/10/25 09:07:37;;;;;;;22.60;6.80;;;;;;;18.69;70.89;99804.70;107644;1251;109214;-61
2023/10/25 09:10:13;;;;;;;20.80;6.50;;;;;;;18.84;70.56;99802.10;107591;1254;107153;-62
2023/10/25 09:12:41;;;;;;;22.40;6.70;;;;;;;18.93;70.27;99795.52;107655;1251;97836;-62
2023/10/25 09:15:10;;;;;;;20.10;7.20;;;;;;;19.07;70.30;99796.02;107592;1251;97909;-63
2023/10/25 09:17:38;;;;;;;23.90;6.20;;;;;;;19.21;70.07;99789.06;107569;1251;111775;-62
2023/10/25 09:20:08;;;;;;;20.10;5.70;;;;;;;19.32;69.45;99786.71;107591;1254;108653;-62
2023/10/25 09:22:36;;;;;;;16.00;5.30;;;;;;;19.41;68.74;99790.53;107588;1254;106744;-62
2023/10/25 09:25:05;;;;;;;20.80;6.60;;;;;;;19.51;68.49;99785.92;107593;1256;97843;-62
2023/10/25 09:27:42;;;;;;;11.80;5.70;;;;;;;19.60;67.95;99777.98;107618;1251;97887;-63
2023/10/25 09:30:13;;;;;;;17.30;5.70;;;;;;;19.64;67.26;99782.73;107468;1254;111052;-61
2023/10/25 09:32:54;;;;;;;25.80;6.20;;;;;;;19.65;66.85;99785.79;107598;1251;108664;-62
2023/10/25 09:35:23;;;;;;;15.60;6.10;;;;;;;19.65;66.43;99779.67;107451;1251;108054;-62
2023/10/25 09:37:51;;;;;;;19.90;7.30;;;;;;;19.63;66.10;99779.23;107643;1251;97737;-62
2023/10/25 09:40:20;;;;;;;22.50;6.30;;;;;;;19.57;65.07;99780.94;107653;1253;97711;-62
2023/10/25 09:42:54;;;;;;;25.70;6.20;;;;;;;19.42;64.69;99777.77;107667;1254;111364;-64
2023/10/25 09:45:28;;;;;;;;;;;;;;;19.31;64.53;99784.79;107648;1251;108485;-64
2023/10/25 09:48:04;;;;;;;38.20;7.80;;;;;;;19.17;64.45;99780.84;107599;1251;108369;-66
2023/10/25 09:50:41;;;;;;;36.20;6.90;;;;;;;19.08;65.27;99781.13;107543;1251;97852;-65
2023/10/25 09:53:37;;;;;;;28.90;7.80;;;;;;;19.01;65.85;99770.34;107659;1251;97942;-65
2023/10/25 09:56:08;;;;;;;24.20;7.50;;;;;;;18.92;66.50;99770.23;107616;1251;111980;-64
2023/10/25 09:58:38;;;;;;;40.80;8.80;;;;;;;18.84;67.37;99757.52;107614;1253;108445;-63
2023/10/25 10:01:08;;;;;;;42.90;7.90;;;;;;;18.81;67.97;99748.02;107599;1251;106691;-63
2023/10/25 10:03:47;;;;;;;33.90;7.40;;;;;;;18.82;68.56;99741.20;107642;1256;97863;-64
2023/10/25 10:06:21;;;;;;;73.70;9.80;;;;;;;18.81;69.01;99733.46;107632;1251;97841;-62
2023/10/25 10:09:05;;;;;;;38.60;7.40;;;;;;;18.77;69.65;99723.75;107580;1251;111844;-62
2023/10/25 10:11:40;;;;;;;24.00;5.70;;;;;;;18.77;70.22;99728.58;107139;1251;669462;-62
2023/10/25 10:14:27;;;;;;;19.30;5.90;;;;;;;18.79;70.36;99729.36;107676;1251;107685;-63
2023/10/25 10:17:05;;;;;;;13.60;6.00;;;;;;;18.83;70.74;99729.17;107545;1251;97817;-62
2023/10/25 10:19:37;;;;;;;21.90;6.80;;;;;;;18.84;71.20;99726.82;107672;1251;98335;-63
2023/10/25 10:22:07;;;;;;;20.00;6.30;;;;;;;18.76;71.23;99716.38;107415;1251;109709;-64
2023/10/25 10:24:48;;;;;;;16.40;6.40;;;;;;;18.73;70.98;99713.88;107577;1251;109848;-63
2023/10/25 10:27:18;;;;;;;22.40;6.60;;;;;;;18.75;71.22;99711.73;107586;1256;107823;-62
2023/10/25 10:29:47;;;;;;;29.70;7.50;;;;;;;18.76;70.95;99704.48;107627;1256;97694;-62
2023/10/25 10:32:17;;;;;;;38.50;7.90;;;;;;;18.85;71.10;99699.83;107424;1252;98395;-64
2023/10/25 10:34:56;;;;;;;24.10;8.30;;;;;;;18.96;71.05;99691.02;107676;1251;110500;-63
2023/10/25 10:37:28;;;;;;;19.90;6.40;;;;;;;19.06;70.93;99690.02;107575;1251;109997;-62
2023/10/25 10:39:57;;;;;;;21.90;7.40;;;;;;;19.17;70.99;99682.70;107604;1251;108645;-63
2023/10/25 10:42:39;;;;;;;29.90;7.20;;;;;;;19.30;71.20;99668.64;107545;1256;97713;-63
2023/10/25 10:45:18;;;;;;;32.70;8.00;;;;;;;19.34;70.94;99662.39;107618;1253;97942;-63
2023/10/25 10:47:55;;;;;;;20.70;8.00;;;;;;;19.34;70.82;99669.15;107689;1251;110536;-63
2023/10/25 10:50:25;;;;;;;28.50;8.90;;;;;;;19.31;70.68;99668.66;107574;1251;108764;-63
2023/10/25 10:52:54;;;;;;;23.10;9.50;;;;;;;19.27;70.71;99675.30;107564;1251;108541;-63
2023/10/25 10:55:24;;;;;;;27.20;9.20;;;;;;;19.24;70.57;99679.08;107579;1251;97819;-64
2023/10/25 10:57:53;;;;;;;30.60;9.90;;;;;;;19.23;70.87;99673.98;107627;1253;97816;-62
2023/10/25 11:00:27;;;;;;;31.50;9.70;;;;;;;19.21;70.76;99679.19;107628;1251;112402;-63
2023/10/25 11:02:55;;;;;;;24.90;8.90;;;;;;;19.10;70.21;99689.58;107651;1251;109806;-63
2023/10/25 11:05:24;;;;;;;36.20;9.40;;;;;;;18.99;70.07;99695.30;107564;1253;107668;-64
2023/10/25 11:07:54;;;;;;;24.00;8.70;;;;;;;18.93;70.36;99694.05;107643;1253;97803;-63
2023/10/25 11:10:22;;;;;;;21.60;8.80;;;;;;;18.84;70.68;99690.52;107604;1253;98453;-62
2023/10/25 11:12:50;;;;;;;26.60;9.00;;;;;;;18.73;70.58;99689.58;107648;1251;110837;-62
2023/10/25 11:15:24;;;;;;;27.80;10.40;;;;;;;18.68;70.84;99695.08;107624;1251;109231;-62
2023/10/25 11:17:53;;;;;;;37.60;9.10;;;;;;;18.69;71.29;99692.05;107573;1251;107902;-63
2023/10/25 11:20:21;;;;;;;25.50;8.40;;;;;;;18.74;71.54;99689.48;107577;1251;97842;-62
2023/10/25 11:22:50;;;;;;;24.80;8.90;;;;;;;18.90;72.01;99691.38;107603;1253;98448;-63